Terminal Aerodrome Forecast
Issued by NWS

Home | Current Version | Previous Version | Text Only | Print | Product List | Glossary On
Versions: 1 2 3 4 5 6 7 8 9 10 11 12 13
000
FTUS42 TJSJ 202300 RRA
TAFJMZ
TAF
TJMZ 202343Z 2100/2124 10004KT P6SM SCT030 SCT100
     FM211500 10008KT P6SM VCTS BKN030CB
     FM212200 06006KT P6SM SCT025 BKN040
      AMD NOT SKED TIL 211100=

USA.gov is the U.S. government's official web portal to all federal, state and local government web resources and services.